ěÝzenÝ letovÚho provozu ╚eskÚ republiky
Letiste: LKPD Aktualizace: 10.08.2020 04:30:25  UTC
 METAR LKPD 10.08. 04:30 ...
METAR LKPD 100430Z VRB01KT CAVOK 17/17 Q1017 NOSIG RMK BLU BLU=
 TAF LKPD 09.08. 23:00 ...
TAF LKPD 092300Z 1000/1100 VRB02KT CAVOK      BECMG 1009/1011 06006KT      TEMPO 1011/1100 02012G22KT 6000 SHRA SCT040TCU      PROB40 TEMPO 1011/1100 02018G28KT 3000 TSRA SCT030CB=